sensor_id;sensor_type;location;lat;lon;timestamp;P1;durP1;ratioP1;P2;durP2;ratioP2
56242;SDS011;42155;53.096;23.226;2023-04-24T00:00:18;6.05;;;2.95;;
56242;SDS011;42155;53.096;23.226;2023-04-24T00:02:18;4.95;;;3.10;;
56242;SDS011;42155;53.096;23.226;2023-04-24T00:04:19;5.45;;;2.95;;
56242;SDS011;42155;53.096;23.226;2023-04-24T00:06:19;11.27;;;3.42;;
56242;SDS011;42155;53.096;23.226;2023-04-24T00:08:19;5.72;;;2.67;;
56242;SDS011;42155;53.096;23.226;2023-04-24T00:10:20;6.97;;;2.80;;
56242;SDS011;42155;53.096;23.226;2023-04-24T00:12:20;5.30;;;2.70;;
56242;SDS011;42155;53.096;23.226;2023-04-24T00:14:20;6.60;;;3.10;;
56242;SDS011;42155;53.096;23.226;2023-04-24T00:16:21;7.28;;;2.85;;
56242;SDS011;42155;53.096;23.226;2023-04-24T00:18:22;8.30;;;2.53;;
56242;SDS011;42155;53.096;23.226;2023-04-24T00:20:23;5.60;;;2.40;;
56242;SDS011;42155;53.096;23.226;2023-04-24T00:22:26;4.63;;;2.75;;
56242;SDS011;42155;53.096;23.226;2023-04-24T00:24:28;3.22;;;2.13;;
56242;SDS011;42155;53.096;23.226;2023-04-24T00:26:28;3.90;;;2.55;;
56242;SDS011;42155;53.096;23.226;2023-04-24T00:28:28;5.03;;;2.63;;
56242;SDS011;42155;53.096;23.226;2023-04-24T00:30:29;7.22;;;2.22;;
56242;SDS011;42155;53.096;23.226;2023-04-24T00:32:29;6.30;;;2.35;;
56242;SDS011;42155;53.096;23.226;2023-04-24T00:34:29;7.47;;;2.50;;
56242;SDS011;42155;53.096;23.226;2023-04-24T00:36:30;5.00;;;2.70;;
56242;SDS011;42155;53.096;23.226;2023-04-24T00:38:30;4.45;;;2.50;;
56242;SDS011;42155;53.096;23.226;2023-04-24T00:40:31;4.70;;;2.75;;
56242;SDS011;42155;53.096;23.226;2023-04-24T00:42:31;4.93;;;2.70;;
56242;SDS011;42155;53.096;23.226;2023-04-24T00:44:32;4.35;;;2.53;;
56242;SDS011;42155;53.096;23.226;2023-04-24T00:46:33;7.18;;;2.63;;
56242;SDS011;42155;53.096;23.226;2023-04-24T00:48:33;4.88;;;2.50;;
56242;SDS011;42155;53.096;23.226;2023-04-24T00:50:35;6.47;;;2.55;;
56242;SDS011;42155;53.096;23.226;2023-04-24T00:52:36;4.05;;;2.22;;
56242;SDS011;42155;53.096;23.226;2023-04-24T00:54:36;3.67;;;2.53;;
56242;SDS011;42155;53.096;23.226;2023-04-24T00:56:36;4.47;;;2.40;;
56242;SDS011;42155;53.096;23.226;2023-04-24T00:58:37;4.60;;;2.72;;
56242;SDS011;42155;53.096;23.226;2023-04-24T01:00:38;4.20;;;2.60;;
56242;SDS011;42155;53.096;23.226;2023-04-24T01:02:39;3.45;;;2.22;;
56242;SDS011;42155;53.096;23.226;2023-04-24T01:04:41;7.90;;;2.88;;
56242;SDS011;42155;53.096;23.226;2023-04-24T01:06:42;5.00;;;2.90;;
56242;SDS011;42155;53.096;23.226;2023-04-24T01:08:44;4.80;;;2.60;;
56242;SDS011;42155;53.096;23.226;2023-04-24T01:10:46;5.10;;;2.75;;
56242;SDS011;42155;53.096;23.226;2023-04-24T01:12:48;5.45;;;2.60;;
56242;SDS011;42155;53.096;23.226;2023-04-24T01:14:48;4.53;;;2.40;;
56242;SDS011;42155;53.096;23.226;2023-04-24T01:16:49;5.75;;;2.95;;
56242;SDS011;42155;53.096;23.226;2023-04-24T01:18:49;4.50;;;2.75;;
56242;SDS011;42155;53.096;23.226;2023-04-24T01:20:50;5.38;;;3.20;;
56242;SDS011;42155;53.096;23.226;2023-04-24T01:22:54;4.40;;;2.83;;
56242;SDS011;42155;53.096;23.226;2023-04-24T01:24:54;5.32;;;2.90;;
56242;SDS011;42155;53.096;23.226;2023-04-24T01:26:54;5.75;;;2.58;;
56242;SDS011;42155;53.096;23.226;2023-04-24T01:28:55;4.53;;;2.53;;
56242;SDS011;42155;53.096;23.226;2023-04-24T01:30:56;5.10;;;2.75;;
56242;SDS011;42155;53.096;23.226;2023-04-24T01:32:56;7.30;;;3.10;;
56242;SDS011;42155;53.096;23.226;2023-04-24T01:34:58;5.03;;;2.70;;
56242;SDS011;42155;53.096;23.226;2023-04-24T01:36:59;8.10;;;2.42;;
56242;SDS011;42155;53.096;23.226;2023-04-24T01:38:59;8.05;;;3.15;;
56242;SDS011;42155;53.096;23.226;2023-04-24T01:41:00;5.35;;;3.10;;
56242;SDS011;42155;53.096;23.226;2023-04-24T01:43:02;5.30;;;2.85;;
56242;SDS011;42155;53.096;23.226;2023-04-24T01:45:03;8.15;;;3.10;;
56242;SDS011;42155;53.096;23.226;2023-04-24T01:47:04;10.50;;;3.92;;
56242;SDS011;42155;53.096;23.226;2023-04-24T01:49:05;4.97;;;2.78;;
56242;SDS011;42155;53.096;23.226;2023-04-24T01:51:05;10.38;;;3.15;;
56242;SDS011;42155;53.096;23.226;2023-04-24T01:53:06;8.75;;;3.67;;
56242;SDS011;42155;53.096;23.226;2023-04-24T01:55:06;5.55;;;2.95;;
56242;SDS011;42155;53.096;23.226;2023-04-24T01:57:07;7.63;;;3.22;;
56242;SDS011;42155;53.096;23.226;2023-04-24T01:59:11;6.13;;;3.10;;
56242;SDS011;42155;53.096;23.226;2023-04-24T02:01:17;5.47;;;2.78;;
56242;SDS011;42155;53.096;23.226;2023-04-24T02:03:18;6.22;;;2.70;;
56242;SDS011;42155;53.096;23.226;2023-04-24T02:05:18;4.95;;;2.80;;
56242;SDS011;42155;53.096;23.226;2023-04-24T02:07:19;6.10;;;3.30;;
56242;SDS011;42155;53.096;23.226;2023-04-24T02:09:19;6.18;;;3.30;;
56242;SDS011;42155;53.096;23.226;2023-04-24T02:11:19;5.13;;;3.22;;
56242;SDS011;42155;53.096;23.226;2023-04-24T02:13:20;7.70;;;3.15;;
56242;SDS011;42155;53.096;23.226;2023-04-24T02:15:20;10.32;;;3.00;;
56242;SDS011;42155;53.096;23.226;2023-04-24T02:17:20;6.68;;;3.10;;
56242;SDS011;42155;53.096;23.226;2023-04-24T02:19:21;5.55;;;3.00;;
56242;SDS011;42155;53.096;23.226;2023-04-24T02:21:21;5.20;;;2.90;;
56242;SDS011;42155;53.096;23.226;2023-04-24T02:23:21;6.60;;;2.88;;
56242;SDS011;42155;53.096;23.226;2023-04-24T02:25:22;5.70;;;2.42;;
56242;SDS011;42155;53.096;23.226;2023-04-24T02:27:22;7.03;;;3.40;;
56242;SDS011;42155;53.096;23.226;2023-04-24T02:29:22;9.05;;;2.88;;
56242;SDS011;42155;53.096;23.226;2023-04-24T02:31:23;7.13;;;3.40;;
56242;SDS011;42155;53.096;23.226;2023-04-24T02:33:23;8.27;;;2.53;;
56242;SDS011;42155;53.096;23.226;2023-04-24T02:35:24;5.43;;;3.05;;
56242;SDS011;42155;53.096;23.226;2023-04-24T02:37:24;5.32;;;2.80;;
56242;SDS011;42155;53.096;23.226;2023-04-24T02:39:24;4.75;;;2.50;;
56242;SDS011;42155;53.096;23.226;2023-04-24T02:41:25;6.03;;;2.75;;
56242;SDS011;42155;53.096;23.226;2023-04-24T02:43:25;6.00;;;2.63;;
56242;SDS011;42155;53.096;23.226;2023-04-24T02:45:25;5.20;;;2.70;;
56242;SDS011;42155;53.096;23.226;2023-04-24T02:47:25;8.80;;;3.10;;
56242;SDS011;42155;53.096;23.226;2023-04-24T02:49:26;7.70;;;3.05;;
56242;SDS011;42155;53.096;23.226;2023-04-24T02:51:26;6.72;;;3.00;;
56242;SDS011;42155;53.096;23.226;2023-04-24T02:53:26;7.45;;;2.53;;
56242;SDS011;42155;53.096;23.226;2023-04-24T02:55:27;8.52;;;3.42;;
56242;SDS011;42155;53.096;23.226;2023-04-24T02:57:27;5.03;;;2.78;;
56242;SDS011;42155;53.096;23.226;2023-04-24T02:59:27;6.28;;;3.80;;
56242;SDS011;42155;53.096;23.226;2023-04-24T03:01:28;8.05;;;4.05;;
56242;SDS011;42155;53.096;23.226;2023-04-24T03:03:28;7.90;;;3.30;;
56242;SDS011;42155;53.096;23.226;2023-04-24T03:05:29;5.32;;;2.75;;
56242;SDS011;42155;53.096;23.226;2023-04-24T03:07:29;5.18;;;2.67;;
56242;SDS011;42155;53.096;23.226;2023-04-24T03:09:29;4.78;;;3.00;;
56242;SDS011;42155;53.096;23.226;2023-04-24T03:11:30;5.82;;;3.28;;
56242;SDS011;42155;53.096;23.226;2023-04-24T03:13:30;4.43;;;2.55;;
56242;SDS011;42155;53.096;23.226;2023-04-24T03:15:30;5.97;;;3.17;;
56242;SDS011;42155;53.096;23.226;2023-04-24T03:17:31;5.28;;;3.17;;
56242;SDS011;42155;53.096;23.226;2023-04-24T03:19:31;7.43;;;3.28;;
56242;SDS011;42155;53.096;23.226;2023-04-24T03:21:32;5.22;;;3.10;;
56242;SDS011;42155;53.096;23.226;2023-04-24T03:23:32;4.40;;;2.80;;
56242;SDS011;42155;53.096;23.226;2023-04-24T03:25:33;4.38;;;2.80;;
56242;SDS011;42155;53.096;23.226;2023-04-24T03:27:33;7.28;;;3.05;;
56242;SDS011;42155;53.096;23.226;2023-04-24T03:29:33;5.70;;;3.10;;
56242;SDS011;42155;53.096;23.226;2023-04-24T03:31:34;4.30;;;2.90;;
56242;SDS011;42155;53.096;23.226;2023-04-24T03:33:34;5.43;;;3.22;;
56242;SDS011;42155;53.096;23.226;2023-04-24T03:35:34;9.23;;;3.20;;
56242;SDS011;42155;53.096;23.226;2023-04-24T03:37:35;6.60;;;3.00;;
56242;SDS011;42155;53.096;23.226;2023-04-24T03:39:35;6.85;;;3.22;;
56242;SDS011;42155;53.096;23.226;2023-04-24T03:41:35;5.95;;;3.25;;
56242;SDS011;42155;53.096;23.226;2023-04-24T03:43:36;7.95;;;3.05;;
56242;SDS011;42155;53.096;23.226;2023-04-24T03:45:36;6.63;;;2.95;;
56242;SDS011;42155;53.096;23.226;2023-04-24T03:47:36;7.68;;;3.70;;
56242;SDS011;42155;53.096;23.226;2023-04-24T03:49:37;9.73;;;3.28;;
56242;SDS011;42155;53.096;23.226;2023-04-24T03:51:37;5.43;;;2.75;;
56242;SDS011;42155;53.096;23.226;2023-04-24T03:53:37;5.47;;;2.92;;
56242;SDS011;42155;53.096;23.226;2023-04-24T03:55:37;4.55;;;3.00;;
56242;SDS011;42155;53.096;23.226;2023-04-24T03:57:39;6.18;;;2.95;;
56242;SDS011;42155;53.096;23.226;2023-04-24T03:59:40;6.75;;;3.40;;
56242;SDS011;42155;53.096;23.226;2023-04-24T04:01:41;9.05;;;3.30;;
56242;SDS011;42155;53.096;23.226;2023-04-24T04:03:42;10.10;;;3.58;;
56242;SDS011;42155;53.096;23.226;2023-04-24T04:05:42;5.97;;;2.88;;
56242;SDS011;42155;53.096;23.226;2023-04-24T04:07:42;5.63;;;3.33;;
56242;SDS011;42155;53.096;23.226;2023-04-24T04:09:43;6.20;;;2.92;;
56242;SDS011;42155;53.096;23.226;2023-04-24T04:11:43;8.07;;;3.13;;
56242;SDS011;42155;53.096;23.226;2023-04-24T04:13:43;9.27;;;3.20;;
56242;SDS011;42155;53.096;23.226;2023-04-24T04:15:44;6.47;;;2.72;;
56242;SDS011;42155;53.096;23.226;2023-04-24T04:17:44;8.73;;;3.00;;
56242;SDS011;42155;53.096;23.226;2023-04-24T04:19:44;8.55;;;3.33;;
56242;SDS011;42155;53.096;23.226;2023-04-24T04:21:45;4.90;;;3.15;;
56242;SDS011;42155;53.096;23.226;2023-04-24T04:23:45;5.55;;;2.97;;
56242;SDS011;42155;53.096;23.226;2023-04-24T04:25:45;8.90;;;3.47;;
56242;SDS011;42155;53.096;23.226;2023-04-24T04:27:46;6.18;;;2.92;;
56242;SDS011;42155;53.096;23.226;2023-04-24T04:29:47;5.93;;;3.40;;
56242;SDS011;42155;53.096;23.226;2023-04-24T04:31:47;5.68;;;3.13;;
56242;SDS011;42155;53.096;23.226;2023-04-24T04:33:47;5.43;;;3.35;;
56242;SDS011;42155;53.096;23.226;2023-04-24T04:35:48;5.43;;;3.33;;
56242;SDS011;42155;53.096;23.226;2023-04-24T04:37:48;7.80;;;3.28;;
56242;SDS011;42155;53.096;23.226;2023-04-24T04:39:48;8.50;;;3.58;;
56242;SDS011;42155;53.096;23.226;2023-04-24T04:41:48;4.50;;;3.42;;
56242;SDS011;42155;53.096;23.226;2023-04-24T04:43:50;5.75;;;3.30;;
56242;SDS011;42155;53.096;23.226;2023-04-24T04:45:50;9.15;;;3.75;;
56242;SDS011;42155;53.096;23.226;2023-04-24T04:47:52;7.70;;;3.55;;
56242;SDS011;42155;53.096;23.226;2023-04-24T04:49:52;5.50;;;3.45;;
56242;SDS011;42155;53.096;23.226;2023-04-24T04:51:52;6.80;;;3.80;;
56242;SDS011;42155;53.096;23.226;2023-04-24T04:53:53;6.20;;;3.75;;
56242;SDS011;42155;53.096;23.226;2023-04-24T04:55:53;5.50;;;3.38;;
56242;SDS011;42155;53.096;23.226;2023-04-24T04:57:53;8.50;;;3.70;;
56242;SDS011;42155;53.096;23.226;2023-04-24T04:59:54;9.65;;;3.97;;
56242;SDS011;42155;53.096;23.226;2023-04-24T05:01:54;11.15;;;4.10;;
56242;SDS011;42155;53.096;23.226;2023-04-24T05:03:54;9.90;;;3.92;;
56242;SDS011;42155;53.096;23.226;2023-04-24T05:05:55;5.78;;;4.18;;
56242;SDS011;42155;53.096;23.226;2023-04-24T05:07:55;8.07;;;3.75;;
56242;SDS011;42155;53.096;23.226;2023-04-24T05:09:55;7.10;;;3.75;;
56242;SDS011;42155;53.096;23.226;2023-04-24T05:11:56;7.28;;;3.60;;
56242;SDS011;42155;53.096;23.226;2023-04-24T05:13:56;9.13;;;4.00;;
56242;SDS011;42155;53.096;23.226;2023-04-24T05:15:57;7.72;;;3.70;;
56242;SDS011;42155;53.096;23.226;2023-04-24T05:17:57;8.27;;;3.97;;
56242;SDS011;42155;53.096;23.226;2023-04-24T05:19:58;6.63;;;3.70;;
56242;SDS011;42155;53.096;23.226;2023-04-24T05:21:58;9.30;;;3.65;;
56242;SDS011;42155;53.096;23.226;2023-04-24T05:23:59;9.43;;;3.42;;
56242;SDS011;42155;53.096;23.226;2023-04-24T05:25:59;6.72;;;3.53;;
56242;SDS011;42155;53.096;23.226;2023-04-24T05:27:59;8.60;;;3.50;;
56242;SDS011;42155;53.096;23.226;2023-04-24T05:30:00;5.65;;;3.00;;
56242;SDS011;42155;53.096;23.226;2023-04-24T05:32:00;5.55;;;3.22;;
56242;SDS011;42155;53.096;23.226;2023-04-24T05:34:06;6.10;;;3.42;;
56242;SDS011;42155;53.096;23.226;2023-04-24T05:36:06;6.25;;;3.33;;
56242;SDS011;42155;53.096;23.226;2023-04-24T05:38:07;8.13;;;3.38;;
56242;SDS011;42155;53.096;23.226;2023-04-24T05:40:07;9.45;;;3.17;;
56242;SDS011;42155;53.096;23.226;2023-04-24T05:42:08;6.13;;;2.80;;
56242;SDS011;42155;53.096;23.226;2023-04-24T05:44:08;9.55;;;3.35;;
56242;SDS011;42155;53.096;23.226;2023-04-24T05:46:09;11.43;;;3.40;;
56242;SDS011;42155;53.096;23.226;2023-04-24T05:48:09;5.38;;;3.53;;
56242;SDS011;42155;53.096;23.226;2023-04-24T05:50:10;6.90;;;2.90;;
56242;SDS011;42155;53.096;23.226;2023-04-24T05:52:11;11.57;;;3.28;;
56242;SDS011;42155;53.096;23.226;2023-04-24T05:54:11;7.03;;;3.60;;
56242;SDS011;42155;53.096;23.226;2023-04-24T05:56:11;8.02;;;3.97;;
56242;SDS011;42155;53.096;23.226;2023-04-24T05:58:12;4.10;;;3.00;;
56242;SDS011;42155;53.096;23.226;2023-04-24T06:00:12;10.93;;;3.42;;
56242;SDS011;42155;53.096;23.226;2023-04-24T06:02:13;7.30;;;3.33;;
56242;SDS011;42155;53.096;23.226;2023-04-24T06:04:13;7.18;;;3.45;;
56242;SDS011;42155;53.096;23.226;2023-04-24T06:06:13;6.40;;;3.40;;
56242;SDS011;42155;53.096;23.226;2023-04-24T06:08:14;6.90;;;3.50;;
56242;SDS011;42155;53.096;23.226;2023-04-24T06:10:14;5.70;;;3.20;;
56242;SDS011;42155;53.096;23.226;2023-04-24T06:12:14;6.00;;;3.00;;
56242;SDS011;42155;53.096;23.226;2023-04-24T06:14:15;5.78;;;3.17;;
56242;SDS011;42155;53.096;23.226;2023-04-24T06:16:15;7.88;;;3.50;;
56242;SDS011;42155;53.096;23.226;2023-04-24T06:18:15;7.30;;;3.65;;
56242;SDS011;42155;53.096;23.226;2023-04-24T06:20:16;5.32;;;2.90;;
56242;SDS011;42155;53.096;23.226;2023-04-24T06:22:16;6.30;;;3.50;;
56242;SDS011;42155;53.096;23.226;2023-04-24T06:24:17;8.73;;;3.40;;
56242;SDS011;42155;53.096;23.226;2023-04-24T06:26:17;5.57;;;3.08;;
56242;SDS011;42155;53.096;23.226;2023-04-24T06:28:17;8.73;;;3.20;;
56242;SDS011;42155;53.096;23.226;2023-04-24T06:30:23;7.20;;;2.97;;
56242;SDS011;42155;53.096;23.226;2023-04-24T06:32:39;8.43;;;3.28;;
56242;SDS011;42155;53.096;23.226;2023-04-24T06:34:40;5.90;;;3.30;;
56242;SDS011;42155;53.096;23.226;2023-04-24T06:36:40;6.38;;;3.22;;
56242;SDS011;42155;53.096;23.226;2023-04-24T06:38:41;6.60;;;3.28;;
56242;SDS011;42155;53.096;23.226;2023-04-24T06:40:41;6.10;;;3.17;;
56242;SDS011;42155;53.096;23.226;2023-04-24T06:42:42;10.80;;;3.30;;
56242;SDS011;42155;53.096;23.226;2023-04-24T06:44:42;15.35;;;3.97;;
56242;SDS011;42155;53.096;23.226;2023-04-24T06:46:42;5.85;;;3.63;;
56242;SDS011;42155;53.096;23.226;2023-04-24T06:48:43;7.47;;;3.83;;
56242;SDS011;42155;53.096;23.226;2023-04-24T06:50:43;5.82;;;3.70;;
56242;SDS011;42155;53.096;23.226;2023-04-24T06:52:44;7.82;;;3.67;;
56242;SDS011;42155;53.096;23.226;2023-04-24T06:54:44;6.03;;;3.63;;
56242;SDS011;42155;53.096;23.226;2023-04-24T06:56:44;6.22;;;3.55;;
56242;SDS011;42155;53.096;23.226;2023-04-24T06:58:45;9.10;;;3.90;;
56242;SDS011;42155;53.096;23.226;2023-04-24T07:00:45;7.75;;;4.00;;
56242;SDS011;42155;53.096;23.226;2023-04-24T07:02:46;11.73;;;3.90;;
56242;SDS011;42155;53.096;23.226;2023-04-24T07:04:46;6.05;;;3.30;;
56242;SDS011;42155;53.096;23.226;2023-04-24T07:06:47;7.05;;;3.40;;
56242;SDS011;42155;53.096;23.226;2023-04-24T07:08:48;5.82;;;3.38;;
56242;SDS011;42155;53.096;23.226;2023-04-24T07:10:49;6.00;;;3.47;;
56242;SDS011;42155;53.096;23.226;2023-04-24T07:12:49;6.55;;;3.55;;
56242;SDS011;42155;53.096;23.226;2023-04-24T07:14:50;8.25;;;3.88;;
56242;SDS011;42155;53.096;23.226;2023-04-24T07:16:51;11.52;;;3.63;;
56242;SDS011;42155;53.096;23.226;2023-04-24T07:18:52;6.85;;;3.28;;
56242;SDS011;42155;53.096;23.226;2023-04-24T07:20:53;6.07;;;3.58;;
56242;SDS011;42155;53.096;23.226;2023-04-24T07:22:53;9.63;;;3.80;;
56242;SDS011;42155;53.096;23.226;2023-04-24T07:24:54;11.20;;;4.03;;
56242;SDS011;42155;53.096;23.226;2023-04-24T07:26:54;8.50;;;3.75;;
56242;SDS011;42155;53.096;23.226;2023-04-24T07:28:54;11.95;;;4.55;;
56242;SDS011;42155;53.096;23.226;2023-04-24T07:30:55;6.20;;;3.70;;
56242;SDS011;42155;53.096;23.226;2023-04-24T07:32:55;8.68;;;4.00;;
56242;SDS011;42155;53.096;23.226;2023-04-24T07:34:56;8.32;;;4.03;;
56242;SDS011;42155;53.096;23.226;2023-04-24T07:36:56;8.38;;;4.57;;
56242;SDS011;42155;53.096;23.226;2023-04-24T07:38:57;11.00;;;4.40;;
56242;SDS011;42155;53.096;23.226;2023-04-24T07:40:57;7.35;;;4.00;;
56242;SDS011;42155;53.096;23.226;2023-04-24T07:42:57;7.80;;;3.75;;
56242;SDS011;42155;53.096;23.226;2023-04-24T07:44:58;8.80;;;3.88;;
56242;SDS011;42155;53.096;23.226;2023-04-24T07:46:58;8.38;;;4.13;;
56242;SDS011;42155;53.096;23.226;2023-04-24T07:48:58;7.38;;;3.90;;
56242;SDS011;42155;53.096;23.226;2023-04-24T07:50:59;7.80;;;3.65;;
56242;SDS011;42155;53.096;23.226;2023-04-24T07:52:59;7.35;;;3.67;;
56242;SDS011;42155;53.096;23.226;2023-04-24T07:54:59;11.70;;;3.75;;
56242;SDS011;42155;53.096;23.226;2023-04-24T07:57:00;8.75;;;3.35;;
56242;SDS011;42155;53.096;23.226;2023-04-24T07:59:00;7.20;;;3.78;;
56242;SDS011;42155;53.096;23.226;2023-04-24T08:01:01;11.40;;;4.18;;
56242;SDS011;42155;53.096;23.226;2023-04-24T08:03:01;8.23;;;3.88;;
56242;SDS011;42155;53.096;23.226;2023-04-24T08:05:02;9.43;;;3.88;;
56242;SDS011;42155;53.096;23.226;2023-04-24T08:07:02;9.15;;;3.70;;
56242;SDS011;42155;53.096;23.226;2023-04-24T08:09:02;11.05;;;4.03;;
56242;SDS011;42155;53.096;23.226;2023-04-24T08:11:03;9.80;;;3.80;;
56242;SDS011;42155;53.096;23.226;2023-04-24T08:13:03;7.25;;;3.95;;
56242;SDS011;42155;53.096;23.226;2023-04-24T08:15:04;10.65;;;4.10;;
56242;SDS011;42155;53.096;23.226;2023-04-24T08:17:05;7.25;;;3.85;;
56242;SDS011;42155;53.096;23.226;2023-04-24T08:19:05;9.43;;;4.30;;
56242;SDS011;42155;53.096;23.226;2023-04-24T08:21:06;8.93;;;4.28;;
56242;SDS011;42155;53.096;23.226;2023-04-24T08:23:06;5.60;;;3.70;;
56242;SDS011;42155;53.096;23.226;2023-04-24T08:25:07;9.80;;;3.90;;
56242;SDS011;42155;53.096;23.226;2023-04-24T08:27:08;9.70;;;3.85;;
56242;SDS011;42155;53.096;23.226;2023-04-24T08:29:08;7.68;;;3.75;;
56242;SDS011;42155;53.096;23.226;2023-04-24T08:31:09;6.47;;;3.58;;
56242;SDS011;42155;53.096;23.226;2023-04-24T08:33:09;7.28;;;3.40;;
56242;SDS011;42155;53.096;23.226;2023-04-24T08:35:10;8.52;;;4.10;;
56242;SDS011;42155;53.096;23.226;2023-04-24T08:37:10;8.07;;;4.47;;
56242;SDS011;42155;53.096;23.226;2023-04-24T08:39:11;10.20;;;4.15;;
56242;SDS011;42155;53.096;23.226;2023-04-24T08:41:11;8.23;;;4.07;;
56242;SDS011;42155;53.096;23.226;2023-04-24T08:43:14;7.40;;;3.67;;
56242;SDS011;42155;53.096;23.226;2023-04-24T08:45:15;9.55;;;3.90;;
56242;SDS011;42155;53.096;23.226;2023-04-24T08:47:16;8.18;;;3.70;;
56242;SDS011;42155;53.096;23.226;2023-04-24T08:49:16;9.80;;;3.55;;
56242;SDS011;42155;53.096;23.226;2023-04-24T08:51:17;15.60;;;3.90;;
56242;SDS011;42155;53.096;23.226;2023-04-24T08:53:19;7.95;;;3.10;;
56242;SDS011;42155;53.096;23.226;2023-04-24T08:55:20;7.20;;;3.65;;
56242;SDS011;42155;53.096;23.226;2023-04-24T08:57:20;9.65;;;3.95;;
56242;SDS011;42155;53.096;23.226;2023-04-24T08:59:22;7.38;;;3.70;;
56242;SDS011;42155;53.096;23.226;2023-04-24T09:01:23;12.57;;;4.03;;
56242;SDS011;42155;53.096;23.226;2023-04-24T09:03:25;5.95;;;3.45;;
56242;SDS011;42155;53.096;23.226;2023-04-24T09:05:27;8.70;;;3.70;;
56242;SDS011;42155;53.096;23.226;2023-04-24T09:07:29;9.05;;;3.72;;
56242;SDS011;42155;53.096;23.226;2023-04-24T09:09:32;9.35;;;3.58;;
56242;SDS011;42155;53.096;23.226;2023-04-24T09:11:33;8.40;;;3.80;;
56242;SDS011;42155;53.096;23.226;2023-04-24T09:13:34;6.05;;;3.90;;
56242;SDS011;42155;53.096;23.226;2023-04-24T09:15:34;6.47;;;3.38;;
56242;SDS011;42155;53.096;23.226;2023-04-24T09:17:35;11.40;;;3.70;;
56242;SDS011;42155;53.096;23.226;2023-04-24T09:19:36;10.05;;;3.97;;
56242;SDS011;42155;53.096;23.226;2023-04-24T09:21:36;6.30;;;3.65;;
56242;SDS011;42155;53.096;23.226;2023-04-24T09:23:37;7.00;;;3.50;;
56242;SDS011;42155;53.096;23.226;2023-04-24T09:25:38;8.15;;;3.50;;
56242;SDS011;42155;53.096;23.226;2023-04-24T09:27:42;7.95;;;3.35;;
56242;SDS011;42155;53.096;23.226;2023-04-24T09:29:54;7.13;;;3.58;;
56242;SDS011;42155;53.096;23.226;2023-04-24T09:31:55;17.58;;;3.85;;
56242;SDS011;42155;53.096;23.226;2023-04-24T09:33:59;9.00;;;3.80;;
56242;SDS011;42155;53.096;23.226;2023-04-24T09:36:01;11.10;;;3.75;;
56242;SDS011;42155;53.096;23.226;2023-04-24T09:38:01;5.38;;;3.55;;
56242;SDS011;42155;53.096;23.226;2023-04-24T09:40:09;14.18;;;3.58;;
56242;SDS011;42155;53.096;23.226;2023-04-24T09:42:10;12.40;;;3.60;;
56242;SDS011;42155;53.096;23.226;2023-04-24T09:44:18;8.43;;;3.45;;
56242;SDS011;42155;53.096;23.226;2023-04-24T09:46:19;7.13;;;3.60;;
56242;SDS011;42155;53.096;23.226;2023-04-24T09:48:20;7.05;;;3.65;;
56242;SDS011;42155;53.096;23.226;2023-04-24T09:50:30;8.38;;;3.47;;
56242;SDS011;42155;53.096;23.226;2023-04-24T09:52:31;7.40;;;3.25;;
56242;SDS011;42155;53.096;23.226;2023-04-24T09:54:31;9.43;;;3.60;;
56242;SDS011;42155;53.096;23.226;2023-04-24T09:56:32;8.07;;;3.60;;
56242;SDS011;42155;53.096;23.226;2023-04-24T09:58:34;7.82;;;3.50;;
56242;SDS011;42155;53.096;23.226;2023-04-24T10:00:35;9.25;;;3.22;;
56242;SDS011;42155;53.096;23.226;2023-04-24T10:02:35;5.35;;;3.20;;
56242;SDS011;42155;53.096;23.226;2023-04-24T10:04:35;11.70;;;3.30;;
56242;SDS011;42155;53.096;23.226;2023-04-24T10:06:36;6.82;;;3.40;;
56242;SDS011;42155;53.096;23.226;2023-04-24T10:08:36;6.22;;;3.30;;
56242;SDS011;42155;53.096;23.226;2023-04-24T10:10:43;9.20;;;3.88;;
56242;SDS011;42155;53.096;23.226;2023-04-24T10:12:45;12.35;;;3.58;;
56242;SDS011;42155;53.096;23.226;2023-04-24T10:14:46;13.45;;;3.67;;
56242;SDS011;42155;53.096;23.226;2023-04-24T10:16:47;6.13;;;3.45;;
56242;SDS011;42155;53.096;23.226;2023-04-24T10:18:48;6.78;;;3.63;;
56242;SDS011;42155;53.096;23.226;2023-04-24T10:20:49;7.03;;;3.40;;
56242;SDS011;42155;53.096;23.226;2023-04-24T10:22:51;8.93;;;3.65;;
56242;SDS011;42155;53.096;23.226;2023-04-24T10:24:52;8.30;;;3.38;;
56242;SDS011;42155;53.096;23.226;2023-04-24T10:26:53;6.07;;;3.40;;
56242;SDS011;42155;53.096;23.226;2023-04-24T10:28:54;6.50;;;3.38;;
56242;SDS011;42155;53.096;23.226;2023-04-24T10:30:57;6.50;;;3.45;;
56242;SDS011;42155;53.096;23.226;2023-04-24T10:32:59;5.38;;;3.03;;
56242;SDS011;42155;53.096;23.226;2023-04-24T10:34:59;6.65;;;3.50;;
56242;SDS011;42155;53.096;23.226;2023-04-24T10:36:59;7.47;;;3.60;;
56242;SDS011;42155;53.096;23.226;2023-04-24T10:39:01;7.18;;;3.67;;
56242;SDS011;42155;53.096;23.226;2023-04-24T10:41:07;8.10;;;3.75;;
56242;SDS011;42155;53.096;23.226;2023-04-24T10:43:08;8.05;;;3.22;;
56242;SDS011;42155;53.096;23.226;2023-04-24T10:45:21;9.02;;;3.30;;
56242;SDS011;42155;53.096;23.226;2023-04-24T10:47:22;6.95;;;3.30;;
56242;SDS011;42155;53.096;23.226;2023-04-24T10:49:29;5.00;;;2.90;;
56242;SDS011;42155;53.096;23.226;2023-04-24T10:53:47;5.47;;;3.25;;
56242;SDS011;42155;53.096;23.226;2023-04-24T10:55:51;7.95;;;3.65;;
56242;SDS011;42155;53.096;23.226;2023-04-24T10:58:02;11.05;;;3.97;;
56242;SDS011;42155;53.096;23.226;2023-04-24T11:00:13;7.50;;;3.42;;
56242;SDS011;42155;53.096;23.226;2023-04-24T11:02:15;7.63;;;3.53;;
56242;SDS011;42155;53.096;23.226;2023-04-24T11:04:21;4.78;;;3.58;;
56242;SDS011;42155;53.096;23.226;2023-04-24T11:06:33;9.02;;;3.47;;
56242;SDS011;42155;53.096;23.226;2023-04-24T11:08:43;10.27;;;3.88;;
56242;SDS011;42155;53.096;23.226;2023-04-24T11:10:45;6.32;;;3.15;;
56242;SDS011;42155;53.096;23.226;2023-04-24T11:12:47;4.10;;;2.97;;
56242;SDS011;42155;53.096;23.226;2023-04-24T11:16:57;7.22;;;3.00;;
56242;SDS011;42155;53.096;23.226;2023-04-24T11:21:09;9.32;;;3.50;;
56242;SDS011;42155;53.096;23.226;2023-04-24T11:23:11;6.93;;;3.30;;
56242;SDS011;42155;53.096;23.226;2023-04-24T11:25:13;6.13;;;3.20;;
56242;SDS011;42155;53.096;23.226;2023-04-24T11:27:16;9.85;;;3.42;;
56242;SDS011;42155;53.096;23.226;2023-04-24T11:29:21;6.63;;;3.20;;
56242;SDS011;42155;53.096;23.226;2023-04-24T11:31:37;10.85;;;3.80;;
56242;SDS011;42155;53.096;23.226;2023-04-24T11:33:39;10.80;;;3.55;;
56242;SDS011;42155;53.096;23.226;2023-04-24T11:35:39;6.05;;;3.03;;
56242;SDS011;42155;53.096;23.226;2023-04-24T11:37:41;10.20;;;3.67;;
56242;SDS011;42155;53.096;23.226;2023-04-24T11:39:42;9.38;;;3.25;;
56242;SDS011;42155;53.096;23.226;2023-04-24T11:41:43;12.40;;;3.85;;
56242;SDS011;42155;53.096;23.226;2023-04-24T11:43:43;6.95;;;3.60;;
56242;SDS011;42155;53.096;23.226;2023-04-24T11:45:47;5.68;;;3.38;;
56242;SDS011;42155;53.096;23.226;2023-04-24T11:47:48;6.65;;;3.80;;
56242;SDS011;42155;53.096;23.226;2023-04-24T11:49:50;4.68;;;3.17;;
56242;SDS011;42155;53.096;23.226;2023-04-24T11:51:50;6.82;;;3.53;;
56242;SDS011;42155;53.096;23.226;2023-04-24T11:53:55;11.55;;;3.70;;
56242;SDS011;42155;53.096;23.226;2023-04-24T11:55:56;5.95;;;3.40;;
56242;SDS011;42155;53.096;23.226;2023-04-24T11:57:57;6.10;;;3.75;;
56242;SDS011;42155;53.096;23.226;2023-04-24T11:59:59;10.40;;;3.75;;
56242;SDS011;42155;53.096;23.226;2023-04-24T12:02:00;8.40;;;3.78;;
56242;SDS011;42155;53.096;23.226;2023-04-24T12:04:01;5.43;;;2.88;;